Time;durP1;ratioP1;P1;durP2;ratioP2;P2;SDS_P1;SDS_P2;PMS_P1;PMS_P2;Temp;Humidity;BMP_temperature;BMP_pressure;BME280_temperature;BME280_humidity;BME280_pressure;Samples;Min_cycle;Max_cycle;Signal;HPM_P1;HPM_P2
2022/11/24 00:01:17;;;;;;;4.82;1.42;;;4.60;99.90;;;;;;5060207;28;20024;-71
2022/11/24 00:03:45;;;;;;;3.38;1.60;;;4.70;99.90;;;;;;5061778;28;20025;-71
2022/11/24 00:06:13;;;;;;;2.55;1.25;;;4.60;99.90;;;;;;5056177;28;20025;-71
2022/11/24 00:08:41;;;;;;;4.13;1.85;;;4.80;99.90;;;;;;5053811;28;20032;-71
2022/11/24 00:11:10;;;;;;;3.88;1.30;;;4.90;99.90;;;;;;5064558;28;20028;-71
2022/11/24 00:13:37;;;;;;;4.28;2.08;;;4.80;99.90;;;;;;5058646;28;20463;-71
2022/11/24 00:16:08;;;;;;;6.07;2.72;;;4.90;99.90;;;;;;5061274;28;20083;-71
2022/11/24 00:18:34;;;;;;;3.45;1.67;;;4.60;99.90;;;;;;5061949;28;20036;-71
2022/11/24 00:20:59;;;;;;;5.57;1.70;;;4.50;99.90;;;;;;5059055;28;20028;-71
2022/11/24 00:23:25;;;;;;;4.00;1.77;;;4.80;99.90;;;;;;5068033;28;20070;-71
2022/11/24 00:25:51;;;;;;;4.20;1.80;;;4.90;99.90;;;;;;5062556;28;20443;-71
2022/11/24 00:28:17;;;;;;;6.72;2.03;;;4.90;99.90;;;;;;5061974;28;20048;-71
2022/11/24 00:30:42;;;;;;;2.80;1.20;;;4.80;99.90;;;;;;5061053;28;20055;-71
2022/11/24 00:33:08;;;;;;;4.53;1.90;;;4.80;99.90;;;;;;5064000;28;20477;-71
2022/11/24 00:35:33;;;;;;;2.92;1.30;;;4.80;99.90;;;;;;5061350;28;20020;-70
2022/11/24 00:37:59;;;;;;;3.30;1.27;;;4.70;99.90;;;;;;5058559;28;20087;-71
2022/11/24 00:40:25;;;;;;;3.47;1.45;;;4.80;99.90;;;;;;5059677;28;20028;-71
2022/11/24 00:42:50;;;;;;;4.82;1.55;;;4.80;99.90;;;;;;5052048;28;20031;-70
2022/11/24 00:45:16;;;;;;;4.72;1.77;;;4.60;99.90;;;;;;5061304;28;20035;-71
2022/11/24 00:47:42;;;;;;;3.35;1.38;;;4.40;99.90;;;;;;5056317;28;20109;-71
2022/11/24 00:50:08;;;;;;;3.08;1.38;;;4.30;99.90;;;;;;5062209;28;20028;-70
2022/11/24 00:52:33;;;;;;;3.22;1.23;;;4.30;99.90;;;;;;5069656;28;20073;-71
2022/11/24 00:54:59;;;;;;;3.05;1.38;;;4.20;99.90;;;;;;5053869;28;20029;-70
2022/11/24 00:57:24;;;;;;;2.88;1.25;;;4.30;99.90;;;;;;5063910;28;20433;-71
2022/11/24 00:59:50;;;;;;;4.30;1.85;;;4.30;99.90;;;;;;5059828;28;20485;-70
2022/11/24 01:02:16;;;;;;;2.88;1.10;;;4.30;99.90;;;;;;5057239;28;20685;-71
2022/11/24 01:04:41;;;;;;;2.88;1.27;;;4.40;99.90;;;;;;5062855;28;20540;-71
2022/11/24 01:07:07;;;;;;;6.18;1.80;;;4.40;99.90;;;;;;5060835;28;20025;-71
2022/11/24 01:09:32;;;;;;;3.45;1.60;;;4.50;99.90;;;;;;5062157;28;20529;-71
2022/11/24 01:12:01;;;;;;;3.15;1.30;;;4.30;99.90;;;;;;5064247;28;20032;-71
2022/11/24 01:14:27;;;;;;;3.20;1.30;;;4.10;99.90;;;;;;5061314;28;20512;-71
2022/11/24 01:16:53;;;;;;;2.67;0.98;;;4.00;99.90;;;;;;5056144;28;20426;-71
2022/11/24 01:19:19;;;;;;;2.30;0.93;;;3.90;99.90;;;;;;5061416;28;20036;-71
2022/11/24 01:21:45;;;;;;;2.95;1.45;;;4.10;99.90;;;;;;5054075;28;20552;-70
2022/11/24 01:24:11;;;;;;;4.90;1.58;;;4.10;99.90;;;;;;5051551;28;20033;-71
2022/11/24 01:26:37;;;;;;;5.97;2.38;;;4.00;99.90;;;;;;5058126;28;20032;-70
2022/11/24 01:29:03;;;;;;;6.53;1.92;;;3.70;99.90;;;;;;5054257;28;20388;-71
2022/11/24 01:31:29;;;;;;;3.20;1.52;;;3.70;99.90;;;;;;5055971;28;20087;-71
2022/11/24 01:33:54;;;;;;;3.70;1.60;;;3.40;99.90;;;;;;5054585;28;20024;-71
2022/11/24 01:36:21;;;;;;;3.72;1.30;;;3.20;99.90;;;;;;5062603;28;20029;-71
2022/11/24 01:38:46;;;;;;;3.22;1.20;;;3.30;99.90;;;;;;5056405;28;20056;-70
2022/11/24 01:41:15;;;;;;;4.50;1.50;;;3.80;99.90;;;;;;5055007;28;20695;-70
2022/11/24 01:43:43;;;;;;;3.72;1.20;;;3.90;99.90;;;;;;5059175;28;20052;-71
2022/11/24 01:46:33;;;;;;;2.85;1.30;;;3.90;99.90;;;;;;5059494;28;20031;-71
2022/11/24 01:49:07;;;;;;;2.35;1.00;;;3.90;99.90;;;;;;5059453;28;20028;-71
2022/11/24 01:51:35;;;;;;;3.95;1.40;;;3.90;99.90;;;;;;5060304;28;20029;-71
2022/11/24 01:54:24;;;;;;;2.83;1.10;;;3.90;99.90;;;;;;5053882;28;20103;-71
2022/11/24 01:56:54;;;;;;;3.90;1.50;;;3.80;99.90;;;;;;5056573;28;20043;-71
2022/11/24 01:59:21;;;;;;;5.60;1.52;;;3.90;99.90;;;;;;5054903;28;20390;-70
2022/11/24 02:01:49;;;;;;;3.17;1.30;;;3.80;99.90;;;;;;5063690;28;20029;-71
2022/11/24 02:04:18;;;;;;;2.85;1.38;;;3.70;99.90;;;;;;5050544;28;20428;-70
2022/11/24 02:06:45;;;;;;;3.60;1.35;;;3.70;99.90;;;;;;5056285;28;20071;-71
2022/11/24 02:09:35;;;;;;;4.72;1.60;;;3.70;99.90;;;;;;5054191;28;20028;-71
2022/11/24 02:12:01;;;;;;;2.67;1.25;;;3.50;99.90;;;;;;5039697;28;20037;-71
2022/11/24 02:14:28;;;;;;;4.15;1.70;;;3.40;99.90;;;;;;5056935;28;20037;-71
2022/11/24 02:16:54;;;;;;;2.90;1.63;;;3.10;99.90;;;;;;5063234;28;20045;-70
2022/11/24 02:19:47;;;;;;;1.90;0.95;;;3.10;99.90;;;;;;5054666;28;20391;-70
2022/11/24 02:22:33;;;;;;;2.85;1.38;;;3.10;99.90;;;;;;5060270;28;20040;-71
2022/11/24 02:25:07;;;;;;;3.90;1.33;;;3.20;99.90;;;;;;5063235;28;20572;-71
2022/11/24 02:27:33;;;;;;;3.40;1.33;;;3.30;99.90;;;;;;5052051;28;20044;-70
2022/11/24 02:29:58;;;;;;;3.10;1.30;;;3.20;99.90;;;;;;5056661;28;20024;-71
2022/11/24 02:32:24;;;;;;;5.15;1.48;;;3.30;99.90;;;;;;5060816;28;20040;-71
2022/11/24 02:35:02;;;;;;;4.05;1.80;;;3.50;99.90;;;;;;5056444;28;20031;-71
2022/11/24 02:37:28;;;;;;;8.05;1.63;;;3.60;99.90;;;;;;5048542;28;20044;-71
2022/11/24 02:39:53;;;;;;;2.97;1.23;;;3.90;99.90;;;;;;5053657;28;20036;-71
2022/11/24 02:42:19;;;;;;;2.13;1.30;;;3.90;99.90;;;;;;5060849;28;20043;-71
2022/11/24 02:44:49;;;;;;;2.92;1.10;;;3.90;99.90;;;;;;5059595;28;20036;-71
2022/11/24 02:47:15;;;;;;;2.80;1.20;;;3.70;99.90;;;;;;5055675;28;20024;-71
2022/11/24 02:49:41;;;;;;;3.33;1.48;;;3.60;99.90;;;;;;5066310;28;20075;-70
2022/11/24 02:52:07;;;;;;;1.67;0.77;;;3.60;99.90;;;;;;5051552;28;20028;-71
2022/11/24 02:54:33;;;;;;;3.25;1.23;;;3.50;99.90;;;;;;5059591;28;20059;-71
2022/11/24 02:56:59;;;;;;;2.58;1.05;;;3.50;99.90;;;;;;5061614;28;20482;-71
2022/11/24 02:59:25;;;;;;;3.53;1.23;;;3.40;99.90;;;;;;5062381;28;20031;-71
2022/11/24 03:01:50;;;;;;;3.00;1.08;;;3.30;99.90;;;;;;5059176;28;20113;-70
2022/11/24 03:04:16;;;;;;;4.63;1.40;;;3.20;99.90;;;;;;5064668;28;20447;-69
2022/11/24 03:06:42;;;;;;;4.00;1.70;;;3.50;99.90;;;;;;5053688;28;20484;-69
2022/11/24 03:09:10;;;;;;;3.00;0.93;;;3.60;99.90;;;;;;5056543;28;20437;-69
2022/11/24 03:11:36;;;;;;;2.92;1.20;;;3.70;99.90;;;;;;5052079;28;20051;-69
2022/11/24 03:14:02;;;;;;;3.38;1.60;;;3.60;99.90;;;;;;5051945;28;20028;-69
2022/11/24 03:16:28;;;;;;;2.95;1.15;;;3.30;99.90;;;;;;5057548;28;20395;-69
2022/11/24 03:18:54;;;;;;;2.83;1.67;;;3.30;99.90;;;;;;5061907;28;20033;-69
2022/11/24 03:21:19;;;;;;;7.00;1.30;;;3.20;99.90;;;;;;5054231;28;20487;-70
2022/11/24 03:23:45;;;;;;;2.33;1.00;;;3.20;99.90;;;;;;5058489;28;20035;-70
2022/11/24 03:26:13;;;;;;;3.05;1.35;;;3.30;99.90;;;;;;5052918;28;20115;-70
2022/11/24 03:28:39;;;;;;;3.85;1.10;;;3.30;99.90;;;;;;5055385;28;20021;-69
2022/11/24 03:31:06;;;;;;;3.05;1.30;;;3.20;99.90;;;;;;5050866;28;20033;-69
2022/11/24 03:33:32;;;;;;;2.67;1.10;;;3.70;99.90;;;;;;5052155;28;20025;-69
2022/11/24 03:35:57;;;;;;;3.38;1.35;;;3.80;99.90;;;;;;5050415;28;20118;-70
2022/11/24 03:38:23;;;;;;;2.58;0.90;;;3.90;99.90;;;;;;5050296;28;20043;-69
2022/11/24 03:40:49;;;;;;;1.55;0.60;;;3.80;99.90;;;;;;5047402;28;20365;-69
2022/11/24 03:43:14;;;;;;;3.25;1.30;;;3.60;99.90;;;;;;5060182;28;20025;-69
2022/11/24 03:45:43;;;;;;;1.92;1.17;;;3.40;99.90;;;;;;5056630;28;20040;-69
2022/11/24 03:48:09;;;;;;;3.30;1.00;;;3.40;99.90;;;;;;5049351;28;20033;-69
2022/11/24 03:50:35;;;;;;;2.00;0.90;;;3.20;99.90;;;;;;5066405;28;20544;-69
2022/11/24 03:53:00;;;;;;;3.80;1.20;;;2.90;99.90;;;;;;5052596;28;20039;-69
2022/11/24 03:55:26;;;;;;;1.75;1.00;;;2.80;99.90;;;;;;5051418;28;20394;-70
2022/11/24 03:57:51;;;;;;;2.35;1.02;;;3.00;99.90;;;;;;5053189;28;20025;-69
2022/11/24 04:00:17;;;;;;;2.92;1.15;;;3.10;99.90;;;;;;5053605;28;20079;-70
2022/11/24 04:02:43;;;;;;;2.33;0.90;;;3.20;99.90;;;;;;5049894;28;20033;-71
2022/11/24 04:05:08;;;;;;;2.55;1.40;;;3.40;99.90;;;;;;5053241;28;20141;-71
2022/11/24 04:07:34;;;;;;;2.15;1.02;;;3.70;99.90;;;;;;5060365;28;20119;-71
2022/11/24 04:10:00;;;;;;;2.60;1.40;;;3.60;99.90;;;;;;5048796;28;20041;-71
2022/11/24 04:12:43;;;;;;;3.22;1.23;;;4.10;99.90;;;;;;5054597;28;20047;-71
2022/11/24 04:15:11;;;;;;;2.35;1.13;;;3.90;99.90;;;;;;5059561;28;20021;-71
2022/11/24 04:17:37;;;;;;;2.75;1.45;;;3.70;99.90;;;;;;5054797;28;20518;-71
2022/11/24 04:20:04;;;;;;;2.53;1.10;;;3.40;99.90;;;;;;5048132;28;20040;-70
2022/11/24 04:22:29;;;;;;;2.22;0.95;;;3.30;99.90;;;;;;5042662;28;20021;-70
2022/11/24 04:24:55;;;;;;;2.45;1.17;;;3.30;99.90;;;;;;5050567;28;20032;-70
2022/11/24 04:27:21;;;;;;;3.30;1.00;;;3.30;99.90;;;;;;5044287;28;20037;-70
2022/11/24 04:29:46;;;;;;;3.20;1.42;;;3.40;99.90;;;;;;5050702;28;20079;-71
2022/11/24 04:32:12;;;;;;;1.35;0.82;;;3.50;99.90;;;;;;5049846;28;20536;-71
2022/11/24 04:34:37;;;;;;;2.35;1.02;;;3.30;99.90;;;;;;5052627;28;20029;-70
2022/11/24 04:37:03;;;;;;;3.03;1.05;;;3.40;99.90;;;;;;5055085;28;20119;-71
2022/11/24 04:39:29;;;;;;;3.35;0.70;;;3.10;99.90;;;;;;5058231;28;20040;-71
2022/11/24 04:41:55;;;;;;;2.55;1.00;;;3.10;99.90;;;;;;5052846;28;20047;-71
2022/11/24 04:44:20;;;;;;;2.28;0.82;;;3.40;99.90;;;;;;5056673;28;20479;-70
2022/11/24 04:46:46;;;;;;;2.35;1.25;;;3.50;99.90;;;;;;5059418;28;20027;-70
2022/11/24 04:49:12;;;;;;;1.40;0.50;;;3.40;99.90;;;;;;5057630;28;20525;-70
2022/11/24 04:51:38;;;;;;;3.58;1.30;;;3.40;99.90;;;;;;5052022;28;20025;-71
2022/11/24 04:54:06;;;;;;;4.30;1.90;;;3.70;99.90;;;;;;5055708;28;20505;-71
2022/11/24 04:56:32;;;;;;;4.75;1.70;;;3.50;99.90;;;;;;5054523;28;20755;-70
2022/11/24 04:58:59;;;;;;;1.95;0.82;;;3.20;99.90;;;;;;5033659;28;20335;-71
2022/11/24 05:01:25;;;;;;;3.67;0.82;;;3.20;99.90;;;;;;5050377;28;20028;-71
2022/11/24 05:03:54;;;;;;;1.98;0.75;;;3.10;99.90;;;;;;5053669;28;20024;-70
2022/11/24 05:06:21;;;;;;;2.55;1.00;;;3.20;99.90;;;;;;5053106;28;20186;-70
2022/11/24 05:08:48;;;;;;;3.75;1.00;;;3.30;99.90;;;;;;5043283;28;20029;-71
2022/11/24 05:11:14;;;;;;;2.10;0.75;;;3.30;99.90;;;;;;5053945;28;20089;-70
2022/11/24 05:13:39;;;;;;;2.30;0.93;;;3.20;99.90;;;;;;5042553;28;20029;-70
2022/11/24 05:16:05;;;;;;;1.90;0.85;;;3.10;99.90;;;;;;5042483;28;20072;-71
2022/11/24 05:18:31;;;;;;;3.15;1.13;;;3.00;99.90;;;;;;5049843;28;20052;-71
2022/11/24 05:20:57;;;;;;;1.95;0.77;;;2.90;99.90;;;;;;5050913;28;20060;-70
2022/11/24 05:23:23;;;;;;;4.57;1.27;;;2.70;99.90;;;;;;5051245;28;20078;-71
2022/11/24 05:25:50;;;;;;;3.28;1.27;;;2.60;99.90;;;;;;5046718;28;20032;-70
2022/11/24 05:28:16;;;;;;;1.27;0.60;;;2.70;99.90;;;;;;5046533;28;20060;-70
2022/11/24 05:30:42;;;;;;;2.50;0.95;;;2.80;99.90;;;;;;5054112;28;20029;-70
2022/11/24 05:33:17;;;;;;;1.95;0.85;;;2.90;99.90;;;;;;5050908;28;20036;-71
2022/11/24 05:35:47;;;;;;;2.42;0.80;;;3.00;99.90;;;;;;5051362;28;20062;-71
2022/11/24 05:38:14;;;;;;;3.08;1.20;;;3.00;99.90;;;;;;5051376;28;20498;-71
2022/11/24 05:40:40;;;;;;;2.70;1.05;;;2.80;99.90;;;;;;5052835;28;20036;-71
2022/11/24 05:43:24;;;;;;;5.90;1.08;;;3.20;99.90;;;;;;5050728;28;20031;-71
2022/11/24 05:45:50;;;;;;;3.08;1.20;;;3.10;99.90;;;;;;5051285;28;20127;-71
2022/11/24 05:48:15;;;;;;;5.45;1.38;;;3.00;99.90;;;;;;5046798;28;20104;-70
2022/11/24 05:50:41;;;;;;;1.42;0.90;;;2.70;99.90;;;;;;5050025;28;20025;-70
2022/11/24 05:53:09;;;;;;;1.98;0.95;;;2.80;99.90;;;;;;5055052;28;20029;-71
2022/11/24 05:55:35;;;;;;;1.90;0.88;;;3.00;99.90;;;;;;5053292;28;20044;-70
2022/11/24 05:58:04;;;;;;;2.47;1.00;;;3.00;99.90;;;;;;5052231;28;20047;-71
2022/11/24 06:00:31;;;;;;;3.22;1.10;;;2.80;99.90;;;;;;5052215;28;20025;-70
2022/11/24 06:02:58;;;;;;;2.47;1.20;;;3.00;99.90;;;;;;5042504;28;20094;-70
2022/11/24 06:05:24;;;;;;;3.38;1.40;;;3.10;99.90;;;;;;5057990;28;20094;-71
2022/11/24 06:07:51;;;;;;;3.85;1.70;;;3.20;99.90;;;;;;5047819;28;20120;-70
2022/11/24 06:10:18;;;;;;;2.67;1.45;;;3.10;99.90;;;;;;5043363;28;20033;-71
2022/11/24 06:12:44;;;;;;;3.33;1.08;;;3.00;99.90;;;;;;5050831;28;20037;-70
2022/11/24 06:15:10;;;;;;;2.22;1.08;;;3.10;99.90;;;;;;5052941;28;20029;-71
2022/11/24 06:17:37;;;;;;;2.60;1.05;;;3.10;99.90;;;;;;5042896;28;20075;-71
2022/11/24 06:20:03;;;;;;;1.98;0.88;;;3.00;99.90;;;;;;5054093;28;20021;-70
2022/11/24 06:22:29;;;;;;;3.25;1.08;;;3.00;99.90;;;;;;5042411;28;20029;-70
2022/11/24 06:24:54;;;;;;;1.63;0.93;;;2.90;99.90;;;;;;5042241;28;20033;-71
2022/11/24 06:27:20;;;;;;;4.47;1.10;;;2.80;99.90;;;;;;5043397;28;20036;-71
2022/11/24 06:29:46;;;;;;;2.33;0.88;;;2.70;99.90;;;;;;5043534;28;20527;-71
2022/11/24 06:32:12;;;;;;;3.47;1.17;;;2.90;99.90;;;;;;5047359;28;20723;-71
2022/11/24 06:34:37;;;;;;;2.42;1.15;;;2.90;99.90;;;;;;5051675;28;20535;-71
2022/11/24 06:37:03;;;;;;;10.35;1.40;;;3.20;99.90;;;;;;5049519;28;20116;-70
2022/11/24 06:39:29;;;;;;;2.25;0.75;;;3.30;99.90;;;;;;5051619;28;20135;-71
2022/11/24 06:41:54;;;;;;;1.27;0.70;;;3.30;99.90;;;;;;5045176;28;20530;-71
2022/11/24 06:44:21;;;;;;;2.03;1.05;;;3.20;99.90;;;;;;5043317;28;20115;-71
2022/11/24 06:46:47;;;;;;;2.85;1.10;;;3.30;99.90;;;;;;5042051;28;20100;-71
2022/11/24 06:49:13;;;;;;;2.33;0.90;;;3.20;99.90;;;;;;5058727;28;20667;-71
2022/11/24 06:51:38;;;;;;;1.58;0.75;;;3.00;99.90;;;;;;5052988;28;20032;-71
2022/11/24 06:54:08;;;;;;;4.38;1.00;;;3.00;99.90;;;;;;5057253;28;20081;-70
2022/11/24 06:56:35;;;;;;;1.85;0.90;;;3.10;99.90;;;;;;5060147;28;20502;-71
2022/11/24 06:59:01;;;;;;;2.75;1.38;;;3.10;99.90;;;;;;5054029;28;20060;-71
2022/11/24 07:01:28;;;;;;;10.80;4.10;;;3.00;99.90;;;;;;5044063;28;20039;-70
2022/11/24 07:03:55;;;;;;;6.90;3.40;;;3.00;99.90;;;;;;5044874;28;20120;-71
2022/11/24 07:06:22;;;;;;;4.15;1.70;;;2.80;99.90;;;;;;5049740;28;20033;-70
2022/11/24 07:08:48;;;;;;;4.20;1.58;;;2.90;99.90;;;;;;5049422;28;20489;-71
2022/11/24 07:11:16;;;;;;;4.38;1.30;;;2.70;99.90;;;;;;5053934;28;20033;-72
2022/11/24 07:13:42;;;;;;;3.35;1.70;;;2.60;99.90;;;;;;5046353;28;20032;-71
2022/11/24 07:16:22;;;;;;;3.65;1.75;;;2.60;99.90;;;;;;5051738;28;20076;-71
2022/11/24 07:18:50;;;;;;;2.40;1.05;;;2.70;99.90;;;;;;5057768;28;20044;-70
2022/11/24 07:21:16;;;;;;;2.60;1.60;;;2.70;99.90;;;;;;5046849;28;20033;-70
2022/11/24 07:23:42;;;;;;;2.42;0.90;;;2.70;99.90;;;;;;5048859;28;20441;-71
2022/11/24 07:26:09;;;;;;;4.70;1.10;;;2.90;99.90;;;;;;5044715;28;20037;-71
2022/11/24 07:28:35;;;;;;;4.53;1.35;;;3.10;99.90;;;;;;5052774;28;20040;-70
2022/11/24 07:31:06;;;;;;;5.78;2.22;;;3.10;99.90;;;;;;5047898;28;20052;-71
2022/11/24 07:33:31;;;;;;;3.65;1.75;;;3.00;99.90;;;;;;5049772;28;20033;-70
2022/11/24 07:35:59;;;;;;;3.55;1.08;;;3.10;99.90;;;;;;5043140;28;20079;-71
2022/11/24 07:38:25;;;;;;;6.50;1.25;;;3.30;99.90;;;;;;5043460;28;20545;-71
2022/11/24 07:40:50;;;;;;;4.97;2.15;;;3.30;99.90;;;;;;5047598;28;20087;-71
2022/11/24 07:43:16;;;;;;;5.47;2.70;;;3.40;99.90;;;;;;5048039;28;20022;-69
2022/11/24 07:45:42;;;;;;;5.45;2.67;;;3.30;99.90;;;;;;5049940;28;20683;-70
2022/11/24 07:48:09;;;;;;;3.55;1.63;;;3.30;99.90;;;;;;5052662;28;20032;-70
2022/11/24 07:50:34;;;;;;;4.50;2.15;;;3.20;99.90;;;;;;5057530;28;20032;-70
2022/11/24 07:53:02;;;;;;;3.33;1.42;;;3.10;99.90;;;;;;5047374;28;20490;-70
2022/11/24 07:55:28;;;;;;;5.50;1.95;;;3.10;99.90;;;;;;5042680;28;22205;-70
2022/11/24 07:57:54;;;;;;;3.25;1.70;;;3.20;99.90;;;;;;5044145;28;20609;-70
2022/11/24 08:00:20;;;;;;;4.65;1.45;;;3.20;99.90;;;;;;5047569;28;20044;-70
2022/11/24 08:02:46;;;;;;;2.63;1.20;;;3.30;99.90;;;;;;5048354;28;20036;-70
2022/11/24 08:05:11;;;;;;;5.88;1.98;;;3.40;99.90;;;;;;5052662;28;20074;-70
2022/11/24 08:07:38;;;;;;;4.93;2.17;;;3.10;99.90;;;;;;5043668;28;20036;-70
2022/11/24 08:10:04;;;;;;;4.50;2.00;;;3.00;99.90;;;;;;5052315;28;20020;-70
2022/11/24 08:12:30;;;;;;;4.32;2.20;;;2.80;99.90;;;;;;5054739;28;20363;-70
2022/11/24 08:14:56;;;;;;;4.05;1.95;;;2.90;99.90;;;;;;5050160;28;20482;-71
2022/11/24 08:17:21;;;;;;;9.55;1.75;;;2.90;99.90;;;;;;5052826;28;20064;-71
2022/11/24 08:19:47;;;;;;;2.60;1.52;;;2.90;99.90;;;;;;5050861;28;20036;-70
2022/11/24 08:22:12;;;;;;;3.60;1.58;;;2.90;99.90;;;;;;5042212;28;20027;-71
2022/11/24 08:24:44;;;;;;;3.35;1.30;;;3.00;99.90;;;;;;5048267;28;20055;-71
2022/11/24 08:27:11;;;;;;;4.40;1.55;;;3.00;99.90;;;;;;5059662;28;20028;-71
2022/11/24 08:29:36;;;;;;;3.30;1.27;;;3.00;99.90;;;;;;5058248;28;20543;-72
2022/11/24 08:32:02;;;;;;;4.13;1.40;;;3.30;99.90;;;;;;5054151;28;20078;-72
2022/11/24 08:34:28;;;;;;;5.28;1.40;;;3.60;99.90;;;;;;5053899;28;20029;-72
2022/11/24 08:36:54;;;;;;;3.35;1.30;;;3.80;99.90;;;;;;5052630;28;20036;-72
2022/11/24 08:39:19;;;;;;;5.32;1.60;;;3.80;99.90;;;;;;5048792;28;20405;-71
2022/11/24 08:41:45;;;;;;;2.30;1.17;;;3.60;99.90;;;;;;5054230;28;20125;-71
2022/11/24 08:44:14;;;;;;;3.03;1.40;;;3.60;99.90;;;;;;5060935;28;20581;-72
2022/11/24 08:46:40;;;;;;;3.95;1.33;;;3.70;99.90;;;;;;5056585;28;20466;-72
2022/11/24 08:49:06;;;;;;;2.67;1.48;;;3.70;99.90;;;;;;5057817;28;20021;-72
2022/11/24 08:51:32;;;;;;;2.40;1.17;;;3.70;99.90;;;;;;5046194;28;20036;-72
2022/11/24 08:54:00;;;;;;;4.22;1.58;;;3.70;99.90;;;;;;5048184;28;21011;-72
2022/11/24 08:56:27;;;;;;;5.80;1.70;;;3.70;99.90;;;;;;5056628;28;20033;-72
2022/11/24 08:58:53;;;;;;;4.40;1.63;;;3.50;99.90;;;;;;5053397;28;20078;-72
2022/11/24 09:01:19;;;;;;;4.53;1.70;;;3.40;99.90;;;;;;5054313;28;20025;-72
2022/11/24 09:03:47;;;;;;;2.95;1.45;;;3.50;99.90;;;;;;5053004;28;20131;-72
2022/11/24 09:06:13;;;;;;;2.13;1.25;;;3.50;99.90;;;;;;5058041;28;20040;-72
2022/11/24 09:08:39;;;;;;;2.20;1.10;;;3.60;99.90;;;;;;5049701;28;20040;-72
2022/11/24 09:11:07;;;;;;;7.43;1.30;;;3.60;99.90;;;;;;5063478;28;20093;-72
2022/11/24 09:13:33;;;;;;;2.22;1.10;;;3.50;99.90;;;;;;5053068;28;20101;-71
2022/11/24 09:16:03;;;;;;;3.45;1.38;;;3.60;99.90;;;;;;5044050;28;20063;-72
2022/11/24 09:18:29;;;;;;;4.25;1.17;;;3.50;99.90;;;;;;5049899;28;20036;-71
2022/11/24 09:21:15;;;;;;;4.28;0.90;;;3.60;99.90;;;;;;5055941;28;20075;-71
2022/11/24 09:23:41;;;;;;;3.33;1.63;;;3.70;99.90;;;;;;5055958;28;20033;-72
2022/11/24 09:26:16;;;;;;;3.45;1.50;;;3.70;99.90;;;;;;5049572;28;20074;-73
2022/11/24 09:28:42;;;;;;;;;;;3.70;99.90;;;;;;5048219;28;20043;-72
2022/11/24 09:31:10;;;;;;;1.25;0.80;;;3.70;99.90;;;;;;5052845;28;19923;-73
2022/11/24 09:33:36;;;;;;;3.58;1.52;;;3.70;99.90;;;;;;5057197;28;20029;-72
2022/11/24 09:36:02;;;;;;;2.97;1.25;;;3.70;99.90;;;;;;5055939;28;20032;-72
2022/11/24 09:38:28;;;;;;;4.20;1.20;;;3.60;99.90;;;;;;5056513;28;20352;-72
2022/11/24 09:40:54;;;;;;;10.25;3.78;;;3.90;99.90;;;;;;5068324;28;20040;-72
2022/11/24 09:44:00;;;;;;;4.22;1.90;;;3.90;99.90;;;;;;5052418;28;20033;-72
2022/11/24 09:46:32;;;;;;;;;;;3.80;99.90;;;;;;5055984;28;20033;-72
2022/11/24 09:48:59;;;;;;;4.40;1.83;;;3.80;99.90;;;;;;5057576;28;20413;-72
2022/11/24 09:51:29;;;;;;;3.63;1.60;;;3.80;99.90;;;;;;5049631;28;20426;-72
2022/11/24 09:54:05;;;;;;;5.82;2.08;;;3.80;99.90;;;;;;5051845;28;20043;-72
2022/11/24 09:56:33;;;;;;;6.45;2.10;;;3.70;99.90;;;;;;5052469;28;20037;-72
2022/11/24 09:59:21;;;;;;;4.43;1.90;;;3.70;99.90;;;;;;5050578;28;20033;-72
2022/11/24 10:01:47;;;;;;;8.00;2.42;;;3.60;99.90;;;;;;5051364;28;20043;-72
2022/11/24 10:04:18;;;;;;;5.50;2.40;;;3.70;99.90;;;;;;5050764;28;20043;-72
2022/11/24 10:07:14;;;;;;;4.97;1.73;;;3.80;99.90;;;;;;5052705;28;20032;-72
2022/11/24 10:09:55;;;;;;;13.32;2.13;;;3.70;99.90;;;;;;5050501;28;20024;-72
2022/11/24 10:12:42;;;;;;;6.32;2.55;;;3.80;99.90;;;;;;5043988;28;20036;-72
2022/11/24 10:15:35;;;;;;;5.20;2.33;;;3.90;99.90;;;;;;5050390;28;20025;-71
2022/11/24 10:18:22;;;;;;;6.75;2.17;;;4.00;99.90;;;;;;5050597;28;20045;-71
2022/11/24 10:20:48;;;;;;;4.97;2.33;;;4.00;99.90;;;;;;5057574;28;20036;-71
2022/11/24 10:23:20;;;;;;;7.85;2.60;;;4.20;99.90;;;;;;5052740;28;20032;-72
2022/11/24 10:25:59;;;;;;;5.30;2.00;;;4.40;99.90;;;;;;5049334;28;20037;-72
2022/11/24 10:28:52;;;;;;;4.03;1.73;;;4.50;99.90;;;;;;5057189;28;20958;-71
2022/11/24 10:31:27;;;;;;;4.88;2.33;;;4.70;99.90;;;;;;5043555;28;20036;-71
2022/11/24 10:33:53;;;;;;;7.05;1.95;;;4.90;99.90;;;;;;5052241;28;20028;-72
2022/11/24 10:36:39;;;;;;;4.00;2.08;;;5.10;99.90;;;;;;5053949;28;20090;-71
2022/11/24 10:39:23;;;;;;;4.25;2.08;;;5.20;99.90;;;;;;5047243;28;20503;-71
2022/11/24 10:42:06;;;;;;;4.82;2.00;;;5.30;99.90;;;;;;5050180;28;20064;-71
2022/11/24 10:44:32;;;;;;;6.18;2.65;;;5.40;99.90;;;;;;5048695;28;20036;-71
2022/11/24 10:46:58;;;;;;;6.03;2.65;;;5.60;99.90;;;;;;5043311;28;20032;-71
2022/11/24 10:49:30;;;;;;;5.65;3.17;;;5.70;99.90;;;;;;5044339;28;20025;-71
2022/11/24 10:52:14;;;;;;;4.70;2.00;;;5.70;99.90;;;;;;5052447;28;20204;-71
2022/11/24 10:55:00;;;;;;;6.30;2.35;;;5.90;99.90;;;;;;5052781;28;20151;-71
2022/11/24 10:57:37;;;;;;;6.05;2.30;;;5.90;99.90;;;;;;5053464;28;20127;-71
2022/11/24 11:00:18;;;;;;;4.85;2.33;;;6.00;99.90;;;;;;5055710;28;20037;-72
2022/11/24 11:02:48;;;;;;;6.05;2.25;;;6.00;99.90;;;;;;5048975;28;20047;-72
2022/11/24 11:05:43;;;;;;;8.05;4.63;;;6.20;99.90;;;;;;5049806;28;20033;-72
2022/11/24 11:08:13;;;;;;;3.83;2.03;;;6.30;99.90;;;;;;5052373;28;20036;-72
2022/11/24 11:10:41;;;;;;;5.65;2.17;;;6.40;99.90;;;;;;5048770;28;20043;-72
2022/11/24 11:13:25;;;;;;;6.13;1.92;;;6.50;99.90;;;;;;5053508;28;20028;-72
2022/11/24 11:15:51;;;;;;;52.95;31.52;;;6.50;99.90;;;;;;5055367;28;20079;-72
2022/11/24 11:18:18;;;;;;;103.75;62.30;;;6.70;99.90;;;;;;5040922;28;20037;-72
2022/11/24 11:20:55;;;;;;;20.77;12.52;;;7.00;99.90;;;;;;5049396;28;20028;-72
2022/11/24 11:23:33;;;;;;;5.55;3.42;;;7.00;99.90;;;;;;5048609;28;20025;-72
2022/11/24 11:26:40;;;;;;;4.50;2.22;;;6.80;99.90;;;;;;5049652;28;20058;-72
2022/11/24 11:29:05;;;;;;;7.15;2.35;;;6.80;99.90;;;;;;5049473;28;20032;-72
2022/11/24 11:31:32;;;;;;;4.60;2.20;;;6.90;99.90;;;;;;5043486;28;20036;-71
2022/11/24 11:34:14;;;;;;;6.15;2.10;;;7.00;99.90;;;;;;5052102;28;21117;-71
2022/11/24 11:36:43;;;;;;;7.88;3.80;;;7.10;99.90;;;;;;5050592;28;20025;-72
2022/11/24 11:39:36;;;;;;;7.75;5.25;;;7.30;99.90;;;;;;5060110;28;23418;-73
2022/11/24 11:42:16;;;;;;;4.50;2.40;;;7.60;99.90;;;;;;5050377;28;20037;-73
2022/11/24 11:44:58;;;;;;;5.65;2.08;;;7.70;99.90;;;;;;5055193;28;20352;-73
2022/11/24 11:47:39;;;;;;;4.20;2.10;;;7.60;99.40;;;;;;5053245;28;20028;-74
2022/11/24 11:50:12;;;;;;;5.07;2.28;;;7.80;99.50;;;;;;5056242;28;20568;-70
2022/11/24 11:53:00;;;;;;;4.82;2.08;;;7.80;99.30;;;;;;5053909;28;20119;-72
2022/11/24 11:55:48;;;;;;;5.68;2.22;;;7.70;99.60;;;;;;5058237;28;20025;-72
2022/11/24 11:58:45;;;;;;;7.30;3.80;;;7.70;99.20;;;;;;5058914;28;20052;-72
2022/11/24 12:01:26;;;;;;;5.82;3.58;;;7.90;99.50;;;;;;5053380;28;20111;-71
2022/11/24 12:04:03;;;;;;;6.35;2.38;;;8.40;99.10;;;;;;5051819;28;20602;-71
2022/11/24 12:07:01;;;;;;;4.68;2.00;;;8.20;99.00;;;;;;5034366;28;20041;-70
2022/11/24 12:09:40;;;;;;;5.72;2.03;;;8.00;98.60;;;;;;5051439;28;20101;-71
2022/11/24 12:12:45;;;;;;;4.88;2.17;;;7.90;98.40;;;;;;5071440;28;20367;-71
2022/11/24 12:15:21;;;;;;;6.45;2.00;;;7.90;98.60;;;;;;5048974;28;20137;-71
2022/11/24 12:18:10;;;;;;;4.03;1.92;;;7.90;98.20;;;;;;5014665;28;20167;-71
2022/11/24 12:20:56;;;;;;;6.32;1.77;;;7.90;98.20;;;;;;5021714;28;20040;-71
2022/11/24 12:23:36;;;;;;;6.95;2.28;;;8.10;98.30;;;;;;5000728;28;20053;-71
2022/11/24 12:26:21;;;;;;;3.50;1.85;;;8.50;98.40;;;;;;5013227;28;20061;-71
2022/11/24 12:29:02;;;;;;;4.35;2.60;;;8.60;97.40;;;;;;5008806;28;20029;-70
2022/11/24 12:31:34;;;;;;;5.13;2.63;;;8.70;98.00;;;;;;5009990;28;20036;-71
2022/11/24 12:34:09;;;;;;;4.50;2.35;;;8.80;97.70;;;;;;5012586;28;20037;-71
2022/11/24 12:36:52;;;;;;;6.07;2.40;;;8.80;98.50;;;;;;5004950;28;20475;-71
2022/11/24 12:39:24;;;;;;;4.72;2.42;;;8.80;98.20;;;;;;5013864;28;20037;-71
2022/11/24 12:42:14;;;;;;;5.15;2.10;;;8.70;97.70;;;;;;5016197;28;20484;-74
2022/11/24 12:44:40;;;;;;;4.82;1.92;;;8.70;97.90;;;;;;5012822;28;20053;-72
2022/11/24 12:47:20;;;;;;;5.25;1.70;;;8.70;97.80;;;;;;5010745;28;22889;-73
2022/11/24 12:49:58;;;;;;;3.80;1.50;;;8.70;97.30;;;;;;5007889;28;20404;-73
2022/11/24 12:52:38;;;;;;;5.60;1.73;;;8.70;97.40;;;;;;5009068;28;20512;-73
2022/11/24 12:55:11;;;;;;;5.90;1.52;;;8.70;97.20;;;;;;5016687;28;20021;-73
2022/11/24 12:57:49;;;;;;;5.45;2.10;;;8.70;97.70;;;;;;5014318;28;20072;-72
2022/11/24 13:00:18;;;;;;;3.67;1.80;;;8.80;97.30;;;;;;5021084;28;20029;-73
2022/11/24 13:03:21;;;;;;;4.88;1.92;;;9.00;97.60;;;;;;5010006;28;20232;-73
2022/11/24 13:06:02;;;;;;;4.18;1.63;;;9.00;97.50;;;;;;5011171;28;20029;-73
2022/11/24 13:08:29;;;;;;;5.25;2.08;;;8.90;97.60;;;;;;5011993;28;20392;-71
2022/11/24 13:11:21;;;;;;;5.40;2.17;;;8.80;97.60;;;;;;5015697;28;20036;-72
2022/11/24 13:13:55;;;;;;;6.22;2.10;;;9.00;98.00;;;;;;5005998;28;20046;-72